Time;durP1;ratioP1;P1;durP2;ratioP2;P2;SDS_P1;SDS_P2;PMS_P1;PMS_P2;Temp;Humidity;BMP_temperature;BMP_pressure;BME280_temperature;BME280_humidity;BME280_pressure;Samples;Min_cycle;Max_cycle;Signal;HPM_P1;HPM_P2
2022/04/06 00:02:07;;;;;;;21.40;15.07;;;9.20;99.90;;;;;;5118168;28;20513;-71
2022/04/06 00:04:35;;;;;;;18.50;13.70;;;9.20;99.90;;;;;;5117754;28;20456;-72
2022/04/06 00:07:02;;;;;;;19.47;15.37;;;9.20;99.90;;;;;;5117698;28;20930;-72
2022/04/06 00:09:28;;;;;;;20.83;14.80;;;9.10;99.90;;;;;;5118163;28;20449;-72
2022/04/06 00:11:55;;;;;;;16.60;13.80;;;9.10;99.90;;;;;;5118111;28;20452;-70
2022/04/06 00:14:22;;;;;;;16.87;13.13;;;9.20;99.90;;;;;;5118281;28;20448;-70
2022/04/06 00:16:49;;;;;;;18.67;13.30;;;9.20;99.90;;;;;;5117552;28;20463;-72
2022/04/06 00:19:15;;;;;;;19.10;14.80;;;9.20;99.90;;;;;;5117361;28;20451;-72
2022/04/06 00:21:43;;;;;;;16.70;13.70;;;9.20;99.90;;;;;;5117287;28;20449;-71
2022/04/06 00:24:10;;;;;;;15.53;12.10;;;9.20;99.90;;;;;;5117012;28;20525;-71
2022/04/06 00:26:37;;;;;;;16.67;13.20;;;9.20;99.90;;;;;;5116955;28;20918;-71
2022/04/06 00:29:04;;;;;;;16.07;12.57;;;9.20;99.90;;;;;;5117198;28;20491;-71
2022/04/06 00:31:31;;;;;;;15.43;13.27;;;9.20;99.90;;;;;;5117225;28;20457;-71
2022/04/06 00:33:58;;;;;;;16.67;12.77;;;9.20;99.90;;;;;;5117043;28;20781;-71
2022/04/06 00:36:25;;;;;;;17.20;14.63;;;9.20;99.90;;;;;;5117213;28;20461;-72
2022/04/06 00:38:53;;;;;;;20.00;13.93;;;9.30;99.90;;;;;;5116923;28;20914;-72
2022/04/06 00:41:20;;;;;;;21.20;16.30;;;9.20;99.90;;;;;;5116800;28;20915;-72
2022/04/06 00:44:13;;;;;;;19.30;16.07;;;9.30;99.90;;;;;;5116766;28;20939;-72
2022/04/06 00:46:40;;;;;;;20.93;15.00;;;9.30;99.90;;;;;;5117115;28;20437;-71
2022/04/06 00:49:11;;;;;;;19.53;13.93;;;9.30;99.90;;;;;;5116972;28;20487;-72
2022/04/06 00:51:39;;;;;;;15.67;12.50;;;9.30;99.90;;;;;;5116657;28;20531;-72
2022/04/06 00:54:07;;;;;;;12.83;11.13;;;9.40;99.90;;;;;;5116489;28;20456;-72
2022/04/06 00:56:34;;;;;;;14.33;11.20;;;9.40;99.90;;;;;;5117017;28;20552;-72
2022/04/06 00:59:01;;;;;;;14.00;12.30;;;9.40;99.90;;;;;;5116879;28;20778;-72
2022/04/06 01:01:28;;;;;;;14.90;11.67;;;9.40;99.90;;;;;;5116715;28;20456;-72
2022/04/06 01:03:55;;;;;;;19.07;13.33;;;9.40;99.90;;;;;;5116495;28;20793;-72
2022/04/06 01:06:21;;;;;;;18.13;14.33;;;9.40;99.90;;;;;;5117044;28;20646;-72
2022/04/06 01:08:48;;;;;;;22.50;15.97;;;9.40;99.90;;;;;;5116320;28;20487;-72
2022/04/06 01:11:16;;;;;;;22.60;16.83;;;9.40;99.90;;;;;;5116484;28;20518;-72
2022/04/06 01:13:43;;;;;;;22.17;16.70;;;9.40;99.90;;;;;;5116412;28;20448;-71
2022/04/06 01:16:10;;;;;;;20.47;15.80;;;9.40;99.90;;;;;;5116754;28;20783;-73
2022/04/06 01:18:37;;;;;;;20.77;16.40;;;9.30;99.90;;;;;;5119895;28;20445;-72
2022/04/06 01:21:04;;;;;;;21.37;16.23;;;9.30;99.90;;;;;;5116281;28;20847;-72
2022/04/06 01:23:32;;;;;;;22.17;16.20;;;9.30;99.90;;;;;;5115256;28;20467;-72
2022/04/06 01:25:59;;;;;;;23.60;17.00;;;9.30;99.90;;;;;;5116091;28;20517;-72
2022/04/06 01:28:26;;;;;;;26.50;17.27;;;9.30;99.90;;;;;;5116094;28;20809;-72
2022/04/06 01:30:53;;;;;;;27.13;18.10;;;9.30;99.90;;;;;;5115768;28;20456;-72
2022/04/06 01:33:19;;;;;;;22.73;16.50;;;9.30;99.90;;;;;;5115653;28;20486;-72
2022/04/06 01:35:47;;;;;;;23.87;16.97;;;9.30;99.90;;;;;;5115789;28;20460;-72
2022/04/06 01:38:14;;;;;;;20.63;14.90;;;9.30;99.90;;;;;;5115448;28;20449;-72
2022/04/06 01:40:42;;;;;;;21.10;14.63;;;9.30;99.90;;;;;;5115846;28;20464;-72
2022/04/06 01:43:10;;;;;;;25.27;17.83;;;9.30;99.90;;;;;;5115819;28;20486;-71
2022/04/06 01:45:37;;;;;;;20.03;15.20;;;9.40;99.90;;;;;;5115650;28;20460;-71
2022/04/06 01:48:04;;;;;;;22.43;14.30;;;9.40;99.90;;;;;;5115629;28;20476;-71
2022/04/06 01:53:15;;;;;;;21.20;14.30;;;9.40;99.90;;;;;;5115504;28;20959;-72
2022/04/06 01:55:48;;;;;;;18.67;14.18;;;9.40;99.90;;;;;;5111604;27;1223825;-72
2022/04/06 01:58:15;;;;;;;18.50;13.97;;;9.40;99.90;;;;;;5133096;28;20209;-72
2022/04/06 02:00:42;;;;;;;17.77;13.73;;;9.40;99.90;;;;;;5132849;28;20466;-72
2022/04/06 02:03:09;;;;;;;18.07;13.60;;;9.40;99.90;;;;;;5133123;28;20479;-73
2022/04/06 02:05:36;;;;;;;18.20;14.03;;;9.40;99.90;;;;;;5132832;28;20455;-73
2022/04/06 02:08:03;;;;;;;19.30;14.03;;;9.40;99.90;;;;;;5132337;28;20463;-71
2022/04/06 02:10:30;;;;;;;19.30;15.00;;;9.50;99.90;;;;;;5132422;28;20464;-71
2022/04/06 02:12:58;;;;;;;17.23;13.70;;;9.40;99.90;;;;;;5132708;28;20451;-71
2022/04/06 02:15:30;;;;;;;19.37;14.60;;;9.40;99.90;;;;;;5132283;28;20475;-73
2022/04/06 02:17:57;;;;;;;17.87;14.97;;;9.50;99.90;;;;;;5132782;28;20459;-73
2022/04/06 02:20:24;;;;;;;22.27;16.03;;;9.50;99.90;;;;;;5132498;28;20464;-73
2022/04/06 02:22:51;;;;;;;18.97;15.07;;;9.40;99.90;;;;;;5132773;28;20846;-71
2022/04/06 02:25:17;;;;;;;18.60;14.53;;;9.50;99.90;;;;;;5132372;28;20447;-73
2022/04/06 02:27:49;;;;;;;20.10;15.27;;;9.50;99.90;;;;;;5132027;28;20904;-73
2022/04/06 02:30:17;;;;;;;22.17;15.87;;;9.50;99.90;;;;;;5132607;28;20493;-73
2022/04/06 02:32:44;;;;;;;21.37;14.70;;;9.40;99.90;;;;;;5132797;28;20460;-72
2022/04/06 02:35:11;;;;;;;17.33;13.60;;;9.50;99.90;;;;;;5132161;28;20975;-72
2022/04/06 02:37:41;;;;;;;18.30;13.90;;;9.50;99.90;;;;;;5133061;28;20478;-71
2022/04/06 02:40:09;;;;;;;18.13;14.53;;;9.40;99.90;;;;;;5132305;28;20460;-73
2022/04/06 02:42:36;;;;;;;15.77;12.47;;;9.50;99.90;;;;;;5132219;28;20792;-73
2022/04/06 02:45:03;;;;;;;17.70;14.00;;;9.50;99.90;;;;;;5131720;28;20448;-74
2022/04/06 02:47:31;;;;;;;16.57;13.20;;;9.50;99.90;;;;;;5132200;28;20455;-72
2022/04/06 02:49:57;;;;;;;20.53;14.00;;;9.50;99.90;;;;;;5132159;28;20464;-73
2022/04/06 02:52:24;;;;;;;16.77;13.67;;;9.50;99.90;;;;;;5131623;28;20480;-72
2022/04/06 02:54:52;;;;;;;15.63;13.17;;;9.50;99.90;;;;;;5131727;28;20491;-72
2022/04/06 02:57:18;;;;;;;17.07;12.23;;;9.50;99.90;;;;;;5131758;28;20941;-73
2022/04/06 02:59:45;;;;;;;15.30;12.47;;;9.50;99.90;;;;;;5131483;28;20899;-73
2022/04/06 03:02:12;;;;;;;17.00;13.30;;;9.50;99.90;;;;;;5131483;28;20918;-73
2022/04/06 03:04:40;;;;;;;13.83;12.00;;;9.50;99.90;;;;;;5131821;28;20452;-72
2022/04/06 03:07:07;;;;;;;16.57;12.80;;;9.50;99.90;;;;;;5118448;28;20460;-73
2022/04/06 03:09:36;;;;;;;15.30;12.63;;;9.50;99.90;;;;;;5118401;28;20516;-73
2022/04/06 03:12:05;;;;;;;15.97;12.80;;;9.50;99.90;;;;;;5118016;28;20452;-72
2022/04/06 03:14:32;;;;;;;14.87;12.83;;;9.50;99.90;;;;;;5118027;28;20476;-73
2022/04/06 03:16:59;;;;;;;14.40;12.70;;;9.50;99.90;;;;;;5117652;28;20456;-72
2022/04/06 03:19:25;;;;;;;15.70;12.93;;;9.60;99.90;;;;;;5117785;28;20460;-72
2022/04/06 03:21:53;;;;;;;16.17;12.80;;;9.50;99.90;;;;;;5117511;28;20448;-71
2022/04/06 03:24:20;;;;;;;17.23;13.10;;;9.50;99.90;;;;;;5118128;28;20762;-73
2022/04/06 03:26:47;;;;;;;15.53;13.47;;;9.60;99.90;;;;;;5117906;28;20460;-72
2022/04/06 03:29:13;;;;;;;26.23;15.30;;;9.60;99.90;;;;;;5117397;28;20456;-71
2022/04/06 03:31:40;;;;;;;17.20;13.83;;;9.60;99.90;;;;;;5117274;28;20932;-73
2022/04/06 03:34:07;;;;;;;17.50;12.77;;;9.60;99.90;;;;;;5117528;28;20456;-72
2022/04/06 03:36:34;;;;;;;19.77;13.87;;;9.60;99.90;;;;;;5117004;28;20448;-71
2022/04/06 03:39:02;;;;;;;16.23;13.30;;;9.60;99.90;;;;;;5117600;28;20764;-71
2022/04/06 03:41:29;;;;;;;15.07;11.20;;;9.60;99.90;;;;;;5117477;28;20513;-71
2022/04/06 03:43:55;;;;;;;15.17;12.20;;;9.50;99.90;;;;;;5117458;28;20460;-71
2022/04/06 03:46:22;;;;;;;13.83;11.80;;;9.50;99.90;;;;;;5117283;28;20806;-71
2022/04/06 03:48:49;;;;;;;17.10;12.30;;;9.50;99.90;;;;;;5116918;28;20458;-72
2022/04/06 03:51:16;;;;;;;16.27;13.07;;;9.40;99.90;;;;;;5117213;28;20457;-71
2022/04/06 03:53:42;;;;;;;18.67;12.60;;;9.40;99.90;;;;;;5117111;28;20468;-72
2022/04/06 03:56:10;;;;;;;17.20;11.53;;;9.40;99.90;;;;;;5117280;28;20471;-71
2022/04/06 03:58:37;;;;;;;14.23;11.10;;;9.40;99.90;;;;;;5118048;28;20795;-72
2022/04/06 04:01:05;;;;;;;21.10;13.07;;;9.40;99.90;;;;;;5118731;28;20456;-72
2022/04/06 04:03:31;;;;;;;13.67;11.13;;;9.40;99.90;;;;;;5121189;28;20544;-72
2022/04/06 04:05:58;;;;;;;15.83;10.50;;;9.40;99.90;;;;;;5119673;28;20452;-72
2022/04/06 04:08:26;;;;;;;13.03;10.30;;;9.30;99.90;;;;;;5117290;28;20449;-72
2022/04/06 04:10:53;;;;;;;12.80;10.47;;;9.30;99.90;;;;;;5116703;28;20492;-72
2022/04/06 04:13:21;;;;;;;15.60;10.47;;;9.30;99.90;;;;;;5116882;28;20556;-72
2022/04/06 04:15:48;;;;;;;16.97;10.80;;;9.30;99.90;;;;;;5116855;28;20857;-72
2022/04/06 04:18:15;;;;;;;15.00;10.07;;;9.30;99.90;;;;;;5117512;28;20468;-72
2022/04/06 04:20:45;;;;;;;11.87;9.90;;;9.40;99.90;;;;;;5116939;28;20460;-72
2022/04/06 04:23:11;;;;;;;13.90;9.93;;;9.40;99.90;;;;;;5116695;28;20487;-72
2022/04/06 04:25:38;;;;;;;13.00;9.83;;;9.40;99.90;;;;;;5116751;28;20489;-72
2022/04/06 04:28:05;;;;;;;11.87;9.23;;;9.30;99.90;;;;;;5116516;28;20460;-71
2022/04/06 04:30:34;;;;;;;18.17;10.73;;;9.30;99.90;;;;;;5116466;28;20457;-72
2022/04/06 04:33:00;;;;;;;17.23;11.10;;;9.30;99.90;;;;;;5116099;28;20935;-71
2022/04/06 04:35:27;;;;;;;16.17;11.30;;;9.30;99.90;;;;;;5116286;28;20476;-71
2022/04/06 04:37:54;;;;;;;14.87;10.60;;;9.30;99.90;;;;;;5116344;28;20449;-70
2022/04/06 04:40:21;;;;;;;14.70;10.93;;;9.30;99.90;;;;;;5116272;28;20822;-71
2022/04/06 04:42:48;;;;;;;15.13;12.47;;;9.30;99.90;;;;;;5115836;28;20470;-71
2022/04/06 04:45:15;;;;;;;18.93;12.57;;;9.20;99.90;;;;;;5116021;28;20452;-71
2022/04/06 04:47:43;;;;;;;16.90;13.90;;;9.20;99.90;;;;;;5115700;28;20456;-72
2022/04/06 04:50:10;;;;;;;27.40;15.17;;;9.20;99.90;;;;;;5116080;28;20784;-71
2022/04/06 04:52:36;;;;;;;17.60;12.80;;;9.20;99.90;;;;;;5116110;28;20456;-71
2022/04/06 04:55:03;;;;;;;23.67;17.70;;;9.20;99.90;;;;;;5115687;28;20492;-71
2022/04/06 04:57:30;;;;;;;20.10;16.27;;;9.20;99.90;;;;;;5115520;28;20460;-72
2022/04/06 04:59:57;;;;;;;19.90;14.57;;;9.20;99.90;;;;;;5115740;28;20463;-71
2022/04/06 05:02:23;;;;;;;19.57;14.20;;;9.20;99.90;;;;;;5115862;28;20815;-71
2022/04/06 05:04:51;;;;;;;21.90;16.10;;;9.20;99.90;;;;;;5115922;28;20762;-71
2022/04/06 05:07:18;;;;;;;21.90;15.83;;;9.20;99.90;;;;;;5115912;28;20464;-71
2022/04/06 05:09:45;;;;;;;19.47;14.67;;;9.20;99.90;;;;;;5116190;28;20448;-71
2022/04/06 05:12:12;;;;;;;17.90;12.20;;;9.20;99.90;;;;;;5116318;28;20517;-71
2022/04/06 05:14:39;;;;;;;15.10;12.63;;;9.20;99.90;;;;;;5116127;28;20828;-71
2022/04/06 05:17:06;;;;;;;18.23;12.23;;;9.20;99.90;;;;;;5115799;28;20469;-72
2022/04/06 05:19:32;;;;;;;18.57;13.07;;;9.20;99.90;;;;;;5115177;28;20920;-71
2022/04/06 05:22:01;;;;;;;18.13;12.50;;;9.20;99.90;;;;;;5115534;28;20905;-71
2022/04/06 05:24:28;;;;;;;13.47;11.33;;;9.20;99.90;;;;;;5115482;28;20547;-71
2022/04/06 05:26:54;;;;;;;19.17;12.10;;;9.30;99.90;;;;;;5115048;28;20451;-71
2022/04/06 05:29:21;;;;;;;16.17;11.73;;;9.30;99.90;;;;;;5115037;28;20908;-71
2022/04/06 05:31:48;;;;;;;18.23;12.50;;;9.30;99.90;;;;;;5115385;28;20453;-71
2022/04/06 05:34:16;;;;;;;15.73;10.90;;;9.30;99.90;;;;;;5115135;28;20600;-71
2022/04/06 05:36:43;;;;;;;14.07;11.33;;;9.40;99.90;;;;;;5115244;28;20515;-72
2022/04/06 05:39:11;;;;;;;17.17;11.83;;;9.40;99.90;;;;;;5115290;28;20827;-72
2022/04/06 05:41:38;;;;;;;18.30;12.57;;;9.40;99.90;;;;;;5115002;28;20456;-72
2022/04/06 05:44:05;;;;;;;17.90;13.27;;;9.40;99.90;;;;;;5115228;28;20456;-72
2022/04/06 05:46:32;;;;;;;18.53;14.13;;;9.50;99.90;;;;;;5114664;28;20949;-71
2022/04/06 05:48:58;;;;;;;17.37;13.57;;;9.50;99.90;;;;;;5114901;28;20453;-71
2022/04/06 05:51:26;;;;;;;19.87;14.33;;;9.50;99.90;;;;;;5114879;28;20897;-72
2022/04/06 05:53:53;;;;;;;20.60;13.97;;;9.60;99.90;;;;;;5114778;28;20456;-72
2022/04/06 05:56:21;;;;;;;15.67;12.87;;;9.60;99.90;;;;;;5115198;28;20533;-72
2022/04/06 05:58:48;;;;;;;20.80;13.23;;;9.60;99.90;;;;;;5114472;28;20456;-71
2022/04/06 06:01:14;;;;;;;17.60;12.53;;;9.60;99.90;;;;;;5114671;28;20528;-73
2022/04/06 06:03:41;;;;;;;13.00;10.50;;;9.60;99.90;;;;;;5115139;28;20467;-72
2022/04/06 06:06:08;;;;;;;14.67;10.60;;;9.70;99.90;;;;;;5115023;28;20452;-72
2022/04/06 06:08:34;;;;;;;18.70;10.83;;;9.70;99.90;;;;;;5114616;28;20451;-70
2022/04/06 06:11:01;;;;;;;14.50;11.03;;;9.70;99.90;;;;;;5115013;28;20762;-72
2022/04/06 06:13:29;;;;;;;15.87;10.80;;;9.70;99.90;;;;;;5114668;28;20472;-72
2022/04/06 06:15:56;;;;;;;18.00;13.03;;;9.70;99.90;;;;;;5115252;28;20476;-72
2022/04/06 06:18:24;;;;;;;15.27;11.07;;;9.70;99.90;;;;;;5114409;28;20913;-73
2022/04/06 06:20:51;;;;;;;21.43;12.83;;;9.80;99.90;;;;;;5114402;28;20939;-73
2022/04/06 06:23:17;;;;;;;13.20;11.10;;;9.80;99.90;;;;;;5114757;28;20464;-71
2022/04/06 06:25:44;;;;;;;16.20;11.30;;;9.80;99.90;;;;;;5114688;28;20456;-71
2022/04/06 06:28:11;;;;;;;15.27;12.43;;;9.80;99.90;;;;;;5114326;28;20923;-71
2022/04/06 06:30:39;;;;;;;21.53;13.43;;;9.80;99.90;;;;;;5114588;28;20539;-71
2022/04/06 06:33:06;;;;;;;20.70;12.73;;;9.80;99.90;;;;;;5114134;28;20467;-72
2022/04/06 06:35:32;;;;;;;18.80;14.30;;;9.70;99.90;;;;;;5114422;28;20472;-72
2022/04/06 06:37:59;;;;;;;19.00;14.10;;;9.70;99.90;;;;;;5114543;28;20463;-72
2022/04/06 06:40:28;;;;;;;23.97;16.97;;;9.70;99.90;;;;;;5114451;28;20921;-72
2022/04/06 06:42:55;;;;;;;19.87;15.67;;;9.70;99.90;;;;;;5118635;28;20466;-72
2022/04/06 06:45:22;;;;;;;21.30;16.03;;;9.80;99.90;;;;;;5117890;28;20529;-72
2022/04/06 06:47:51;;;;;;;24.57;14.40;;;9.80;99.90;;;;;;5118587;28;20792;-72
2022/04/06 06:50:19;;;;;;;21.30;14.23;;;9.90;99.90;;;;;;5118240;28;20481;-72
2022/04/06 06:52:46;;;;;;;23.43;15.57;;;9.90;99.90;;;;;;5118106;28;20452;-72
2022/04/06 06:55:18;;;;;;;22.47;14.70;;;9.90;99.90;;;;;;5118427;28;20492;-72
2022/04/06 06:57:45;;;;;;;21.57;13.60;;;9.90;99.90;;;;;;5119687;28;20869;-72
2022/04/06 07:00:13;;;;;;;22.53;15.80;;;9.90;99.90;;;;;;5118354;28;20464;-70
2022/04/06 07:02:40;;;;;;;25.63;16.20;;;10.00;99.90;;;;;;5119311;28;20467;-72
2022/04/06 07:05:09;;;;;;;20.13;15.37;;;10.00;99.90;;;;;;5118090;28;20452;-71
2022/04/06 07:07:51;;;;;;;27.77;14.90;;;10.00;99.90;;;;;;5118691;28;20452;-72
2022/04/06 07:10:18;;;;;;;22.23;15.63;;;10.10;99.90;;;;;;5118416;28;20451;-72
2022/04/06 07:12:45;;;;;;;21.80;14.83;;;10.10;99.90;;;;;;5117737;28;20543;-72
2022/04/06 07:15:12;;;;;;;22.93;15.10;;;10.20;99.90;;;;;;5118361;28;20470;-72
2022/04/06 07:17:38;;;;;;;22.87;15.20;;;10.20;99.90;;;;;;5120875;28;20444;-72
2022/04/06 07:20:09;;;;;;;20.37;15.27;;;10.30;99.90;;;;;;5118883;28;20493;-71
2022/04/06 07:22:36;;;;;;;28.27;16.17;;;10.20;99.90;;;;;;5118202;28;20463;-71
2022/04/06 07:25:03;;;;;;;20.93;14.93;;;10.30;99.90;;;;;;5117742;28;20547;-71
2022/04/06 07:27:35;;;;;;;22.00;14.40;;;10.40;99.90;;;;;;5117531;28;20449;-71
2022/04/06 07:30:02;;;;;;;22.43;14.10;;;10.40;99.90;;;;;;5117799;28;20456;-71
2022/04/06 07:32:29;;;;;;;20.27;14.27;;;10.50;99.90;;;;;;5118054;28;20484;-71
2022/04/06 07:34:56;;;;;;;24.40;14.70;;;10.50;99.90;;;;;;5117892;28;20463;-71
2022/04/06 07:37:24;;;;;;;19.13;13.57;;;10.60;99.90;;;;;;5118331;28;20599;-70
2022/04/06 07:39:51;;;;;;;17.67;14.47;;;10.60;99.90;;;;;;5118270;28;20805;-71
2022/04/06 07:42:18;;;;;;;21.93;15.23;;;10.60;99.90;;;;;;5118435;28;20452;-72
2022/04/06 07:44:44;;;;;;;21.53;14.20;;;10.70;99.90;;;;;;5118265;28;20471;-72
2022/04/06 07:47:11;;;;;;;17.73;13.73;;;10.80;99.90;;;;;;5119767;28;20448;-72
2022/04/06 07:49:38;;;;;;;21.93;14.03;;;10.90;99.90;;;;;;5120243;28;20452;-72
2022/04/06 07:52:05;;;;;;;20.10;13.53;;;11.00;99.90;;;;;;5117713;28;20448;-72
2022/04/06 07:54:33;;;;;;;21.80;13.90;;;11.00;99.90;;;;;;5117368;28;20492;-71
2022/04/06 07:57:00;;;;;;;17.10;13.03;;;11.10;99.90;;;;;;5117394;28;20491;-71
2022/04/06 07:59:27;;;;;;;18.17;13.77;;;11.20;99.90;;;;;;5116959;28;20464;-71
2022/04/06 08:01:53;;;;;;;15.97;12.30;;;11.40;99.90;;;;;;5116882;28;20509;-71
2022/04/06 08:04:20;;;;;;;15.67;11.10;;;11.40;99.90;;;;;;5117484;28;20452;-71
2022/04/06 08:06:47;;;;;;;19.07;12.20;;;11.40;99.90;;;;;;5116865;28;20539;-70
2022/04/06 08:09:13;;;;;;;15.23;10.43;;;11.50;99.90;;;;;;5117317;28;20468;-69
2022/04/06 08:11:41;;;;;;;17.80;13.10;;;11.60;99.90;;;;;;5117227;28;20456;-71
2022/04/06 08:14:08;;;;;;;19.27;11.00;;;11.60;99.90;;;;;;5117189;28;20457;-71
2022/04/06 08:16:35;;;;;;;15.37;10.80;;;11.70;99.90;;;;;;5116853;28;20483;-71
2022/04/06 08:19:01;;;;;;;14.47;9.93;;;11.70;99.90;;;;;;5116987;28;20778;-71
2022/04/06 08:21:28;;;;;;;15.67;11.17;;;11.80;99.90;;;;;;5116749;28;20463;-70
2022/04/06 08:23:55;;;;;;;16.27;10.30;;;11.90;95.60;;;;;;5116745;28;20495;-71
2022/04/06 08:26:27;;;;;;;14.77;10.60;;;12.00;64.60;;;;;;5116968;28;20457;-70
2022/04/06 08:28:55;;;;;;;15.50;8.73;;;12.00;52.70;;;;;;5116588;28;20440;-71
2022/04/06 08:31:21;;;;;;;16.67;10.43;;;11.90;38.30;;;;;;5116790;28;20483;-71
2022/04/06 08:33:48;;;;;;;12.47;10.03;;;11.90;46.30;;;;;;5116292;28;20441;-71
2022/04/06 08:36:16;;;;;;;12.00;9.33;;;12.00;62.40;;;;;;5116645;28;20483;-71
2022/04/06 08:38:45;;;;;;;12.27;9.80;;;12.10;15.60;;;;;;5116247;28;20528;-71
2022/04/06 08:41:12;;;;;;;15.03;9.00;;;12.10;28.90;;;;;;5116592;28;20475;-71
2022/04/06 08:43:39;;;;;;;17.93;10.43;;;12.00;26.20;;;;;;5116604;28;20464;-70
2022/04/06 08:46:07;;;;;;;14.87;9.60;;;12.00;29.10;;;;;;5117776;28;20448;-70
2022/04/06 08:48:36;;;;;;;11.60;9.40;;;11.90;11.90;;;;;;5116294;28;20818;-71
2022/04/06 08:51:06;;;;;;;13.67;8.77;;;11.90;1.80;;;;;;5116490;28;20924;-71
2022/04/06 08:53:34;;;;;;;16.80;8.80;;;11.80;5.80;;;;;;5116866;28;20951;-71
2022/04/06 08:56:02;;;;;;;11.83;8.00;;;11.70;13.00;;;;;;5075469;28;20958;-70
2022/04/06 08:58:29;;;;;;;11.17;8.43;;;11.70;2.10;;;;;;5076245;28;20524;-69
2022/04/06 09:00:55;;;;;;;12.07;8.40;;;11.70;9.50;;;;;;5076825;28;20454;-71
2022/04/06 09:03:23;;;;;;;14.97;7.83;;;11.80;1.00;;;;;;5077458;28;20462;-71
2022/04/06 09:06:02;;;;;;;13.60;7.73;;;11.80;1.00;;;;;;5076705;28;20458;-71
2022/04/06 09:08:36;;;;;;;10.17;7.40;;;11.90;1.00;;;;;;5077428;28;20533;-71
2022/04/06 09:11:14;;;;;;;10.17;7.40;;;11.90;1.00;;;;;;5076972;28;20823;-71
2022/04/06 09:13:43;;;;;;;17.50;7.53;;;12.10;1.00;;;;;;5076886;28;20442;-71
2022/04/06 09:16:11;;;;;;;9.47;7.60;;;12.20;1.00;;;;;;5075590;28;20508;-71
2022/04/06 09:18:42;;;;;;;8.80;6.87;;;12.30;1.00;;;;;;5074809;28;20561;-70
2022/04/06 09:21:10;;;;;;;12.30;7.10;;;12.30;1.00;;;;;;5075048;28;20549;-71
2022/04/06 09:23:37;;;;;;;10.40;6.13;;;12.40;1.00;;;;;;5074890;28;20895;-70
2022/04/06 09:26:07;;;;;;;12.00;7.03;;;12.40;1.00;;;;;;5075133;28;20787;-70
2022/04/06 09:28:38;;;;;;;10.70;6.60;;;12.50;1.00;;;;;;5076212;28;20738;-71
2022/04/06 09:31:05;;;;;;;11.30;7.00;;;12.50;1.00;;;;;;5075100;28;20454;-71
2022/04/06 09:33:32;;;;;;;12.80;7.37;;;12.60;1.00;;;;;;5075013;28;20465;-71
2022/04/06 09:36:00;;;;;;;9.67;7.03;;;12.70;1.00;;;;;;5074837;28;20451;-72
2022/04/06 09:38:31;;;;;;;12.70;8.10;;;12.70;1.00;;;;;;5075157;28;20462;-72
2022/04/06 09:41:03;;;;;;;11.10;7.37;;;12.60;99.90;;;;;;5075019;28;20474;-70
2022/04/06 09:43:31;;;;;;;18.10;7.77;;;12.60;99.90;;;;;;5074658;28;20454;-71
2022/04/06 09:49:02;;;;;;;11.83;6.50;;;12.50;1.00;;;;;;5074871;28;20422;-71
2022/04/06 09:51:32;;;;;;;13.33;7.83;;;12.50;99.90;;;;;;5074762;28;20462;-70
2022/04/06 09:54:03;;;;;;;10.07;7.53;;;12.40;99.90;;;;;;5081573;28;20492;-71
2022/04/06 09:56:31;;;;;;;12.97;7.83;;;12.30;1.00;;;;;;5114920;28;20479;-70
2022/04/06 09:58:59;;;;;;;9.67;6.97;;;12.30;1.00;;;;;;5115452;28;20467;-71
2022/04/06 10:01:30;;;;;;;11.10;7.13;;;12.40;99.90;;;;;;5115487;28;20498;-71
2022/04/06 10:04:00;;;;;;;11.97;6.63;;;12.50;99.90;;;;;;5115216;28;20440;-71
2022/04/06 10:06:27;;;;;;;11.57;6.90;;;12.50;99.90;;;;;;5115390;28;20444;-71
2022/04/06 10:08:56;;;;;;;9.37;7.03;;;12.50;99.90;;;;;;5115519;28;20460;-71
2022/04/06 10:11:24;;;;;;;8.17;6.80;;;12.60;99.90;;;;;;5116737;28;20529;-71
2022/04/06 10:13:52;;;;;;;9.63;6.33;;;12.70;99.90;;;;;;5116025;28;20459;-70
2022/04/06 10:16:20;;;;;;;8.93;7.10;;;12.90;1.00;;;;;;5117046;28;20540;-70
2022/04/06 10:18:47;;;;;;;10.40;7.70;;;12.90;1.00;;;;;;5119548;28;20472;-70
2022/04/06 10:21:19;;;;;;;12.57;7.03;;;13.00;99.90;;;;;;5119522;28;20452;-71
2022/04/06 10:23:57;;;;;;;9.70;7.37;;;13.10;99.90;;;;;;5119609;28;20456;-71
2022/04/06 10:26:43;;;;;;;12.40;7.90;;;13.10;99.90;;;;;;5119238;28;20432;-71
2022/04/06 10:29:10;;;;;;;16.00;8.57;;;13.00;99.90;;;;;;5118991;28;20783;-70
2022/04/06 10:31:37;;;;;;;10.30;7.03;;;12.80;1.00;;;;;;5119164;28;20462;-72
2022/04/06 10:34:24;;;;;;;10.70;7.70;;;12.70;1.00;;;;;;5119123;28;20795;-71
2022/04/06 10:37:07;;;;;;;11.20;7.27;;;12.70;95.20;;;;;;5119790;28;20844;-71
2022/04/06 10:39:54;;;;;;;9.50;6.67;;;12.70;1.00;;;;;;5119365;28;20949;-71
2022/04/06 10:42:32;;;;;;;11.20;7.97;;;12.70;1.00;;;;;;5120003;28;20458;-70
2022/04/06 10:45:01;;;;;;;11.63;6.80;;;12.80;1.00;;;;;;5119898;28;20553;-70
2022/04/06 10:47:29;;;;;;;13.87;7.17;;;12.70;1.00;;;;;;5122050;28;20452;-70
2022/04/06 10:50:22;;;;;;;9.40;6.80;;;12.80;1.00;;;;;;5121334;28;20452;-71
2022/04/06 10:52:49;;;;;;;8.37;7.00;;;12.90;1.00;;;;;;5107677;28;20986;-70
2022/04/06 10:55:23;;;;;;;9.03;6.80;;;13.00;99.90;;;;;;5119615;28;20899;-71
2022/04/06 10:57:58;;;;;;;12.27;6.70;;;13.20;99.90;;;;;;5118873;28;20551;-71
2022/04/06 11:00:28;;;;;;;10.87;6.60;;;13.40;1.00;;;;;;5118545;28;20470;-71
2022/04/06 11:03:14;;;;;;;9.03;7.10;;;13.40;1.00;;;;;;5118812;28;20448;-71
2022/04/06 11:05:49;;;;;;;8.77;6.40;;;13.20;99.90;;;;;;5118878;28;20769;-70
2022/04/06 11:11:45;;;;;;;11.43;6.07;;;12.90;1.00;;;;;;5118280;28;20448;-69
2022/04/06 11:14:14;;;;;;;11.00;6.93;;;12.70;1.00;;;;;;5118453;28;20448;-70
2022/04/06 11:16:43;;;;;;;7.50;6.10;;;12.70;1.00;;;;;;5118437;28;20480;-71
2022/04/06 11:19:10;;;;;;;10.63;7.33;;;12.60;1.00;;;;;;5117855;28;20456;-71
2022/04/06 11:21:46;;;;;;;10.17;6.33;;;12.60;1.00;;;;;;5118230;28;20464;-70
2022/04/06 11:24:17;;;;;;;7.73;6.87;;;12.50;1.00;;;;;;5118258;28;20451;-70
2022/04/06 11:26:44;;;;;;;11.23;6.37;;;12.50;1.00;;;;;;5117613;28;20436;-71
2022/04/06 11:29:11;;;;;;;12.80;6.30;;;12.40;1.00;;;;;;5118240;28;20464;-72
2022/04/06 11:31:59;;;;;;;9.30;6.57;;;12.50;1.00;;;;;;5119095;28;20468;-71
2022/04/06 11:34:36;;;;;;;8.03;6.00;;;12.40;1.00;;;;;;5120049;28;20524;-71
2022/04/06 11:37:05;;;;;;;10.63;6.10;;;12.40;1.00;;;;;;5118701;28;20472;-71
2022/04/06 11:39:32;;;;;;;11.83;8.03;;;12.40;99.90;;;;;;5117899;28;20452;-71
2022/04/06 11:42:00;;;;;;;13.90;7.20;;;12.40;99.90;;;;;;5117753;28;20757;-71
2022/04/06 11:44:28;;;;;;;10.40;6.63;;;12.50;99.90;;;;;;5117350;28;20488;-71
2022/04/06 11:46:56;;;;;;;7.97;6.23;;;12.50;99.90;;;;;;5117663;28;20551;-71
2022/04/06 11:49:26;;;;;;;11.00;7.30;;;12.50;1.00;;;;;;5117885;28;20453;-70
2022/04/06 11:51:54;;;;;;;11.30;6.53;;;12.50;99.90;;;;;;5119604;28;20882;-70
2022/04/06 11:54:22;;;;;;;9.70;6.60;;;12.40;1.00;;;;;;5117220;28;20571;-70
2022/04/06 11:56:50;;;;;;;11.30;6.93;;;12.40;1.00;;;;;;5116643;28;20479;-72
2022/04/06 11:59:19;;;;;;;9.10;6.30;;;12.30;1.00;;;;;;5117036;28;20517;-71
2022/04/06 12:01:46;;;;;;;10.40;6.70;;;12.30;1.00;;;;;;5116829;28;20463;-70
2022/04/06 12:04:15;;;;;;;10.53;7.00;;;12.30;1.00;;;;;;5117494;28;20488;-71
2022/04/06 12:06:44;;;;;;;8.77;6.63;;;12.30;3.60;;;;;;5116697;28;20460;-70
2022/04/06 12:09:11;;;;;;;11.10;7.70;;;12.30;1.00;;;;;;5116773;28;20464;-70
2022/04/06 12:11:39;;;;;;;11.03;6.67;;;12.20;1.00;;;;;;5116855;28;20456;-71
2022/04/06 12:14:10;;;;;;;8.17;6.93;;;12.20;1.00;;;;;;5116818;28;20499;-70
2022/04/06 12:16:38;;;;;;;12.30;7.60;;;12.10;1.00;;;;;;5116307;28;20506;-70
2022/04/06 12:19:08;;;;;;;11.70;6.43;;;12.10;1.00;;;;;;5116763;28;20462;-71
2022/04/06 12:21:41;;;;;;;9.60;7.20;;;12.10;1.00;;;;;;5116543;28;20517;-70
2022/04/06 12:24:09;;;;;;;10.40;6.90;;;12.10;1.00;;;;;;5116280;28;20515;-71
2022/04/06 12:26:41;;;;;;;9.53;7.23;;;12.10;1.00;;;;;;5116545;28;20547;-71
2022/04/06 12:29:14;;;;;;;7.83;5.90;;;12.10;1.00;;;;;;5117050;28;20441;-71
2022/04/06 12:31:42;;;;;;;10.63;6.90;;;12.10;1.00;;;;;;5117470;28;20912;-71
2022/04/06 12:34:28;;;;;;;11.43;6.27;;;12.10;1.00;;;;;;5120093;28;20491;-72
2022/04/06 12:36:55;;;;;;;8.43;6.50;;;12.10;1.00;;;;;;5118220;28;20467;-70
2022/04/06 12:39:23;;;;;;;9.73;6.50;;;12.10;1.00;;;;;;5115838;28;20484;-71
2022/04/06 12:41:58;;;;;;;7.13;5.93;;;12.10;1.00;;;;;;5116002;28;20453;-70
2022/04/06 12:44:26;;;;;;;9.23;6.80;;;12.10;1.00;;;;;;5116180;28;20472;-71
2022/04/06 12:46:53;;;;;;;10.40;7.07;;;12.10;1.00;;;;;;5116213;28;20506;-70
2022/04/06 12:49:22;;;;;;;11.60;7.07;;;12.10;1.00;;;;;;5116414;28;20461;-71
2022/04/06 12:51:48;;;;;;;9.77;6.50;;;12.10;1.00;;;;;;5116393;28;20468;-71
2022/04/06 12:54:18;;;;;;;7.83;6.17;;;12.10;1.00;;;;;;5116086;28;20882;-71